Terminal Aerodrome Forecast
Issued by NWS Albuquerque, NM

Home | Current Version | Previous Version | Text Only | Print | Product List | Glossary On
Versions: 1 2 3 4 5 6 7 8 9 10 11 12 13 14 15
000
FTUS45 KABQ 271740
TAFABQ
TAF
KABQ 271740Z 2718/2818 23006KT P6SM VCSH SCT130 BKN200
     FM272000 19007KT P6SM VCSH BKN080
     FM272300 12013KT P6SM VCTS BKN080CB
      TEMPO 2723/2803 VRB25G35KT -TSRA OVC060CB
     FM280500 12009KT P6SM VCSH BKN070
     FM281000 VRB04KT P6SM BKN090=

USA.gov is the U.S. government's official web portal to all federal, state and local government web resources and services.